Time;durP1;ratioP1;P1;durP2;ratioP2;P2;SDS_P1;SDS_P2;PMS_P1;PMS_P2;Temp;Humidity;BMP_temperature;BMP_pressure;BME280_temperature;BME280_humidity;BME280_pressure;Samples;Min_cycle;Max_cycle;Signal;HPM_P1;HPM_P2
2023/06/20 00:01:05;;;;;;;16.60;5.42;;;;;;;19.30;51.97;99923.83;1746866;82;21330;-79
2023/06/20 00:04:11;;;;;;;7.28;4.30;;;;;;;17.75;55.83;99919.26;1746237;82;21947;-82
2023/06/20 00:07:16;;;;;;;10.48;5.75;;;;;;;17.93;56.24;99918.39;1747573;82;21283;-81
2023/06/20 00:10:22;;;;;;;8.95;4.97;;;;;;;17.56;57.59;99917.86;1747377;82;21876;-81
2023/06/20 00:13:27;;;;;;;8.33;5.40;;;;;;;17.36;58.67;99915.34;1746982;82;21351;-81
2023/06/20 00:16:33;;;;;;;11.57;5.58;;;;;;;17.37;58.57;99917.56;1746577;82;21903;-79
2023/06/20 00:19:39;;;;;;;12.00;5.47;;;;;;;17.18;59.14;99911.19;1747410;82;21291;-82
2023/06/20 00:22:46;;;;;;;21.05;5.67;;;;;;;16.93;60.20;99911.20;1747720;82;21259;-79
2023/06/20 00:25:52;;;;;;;7.60;5.03;;;;;;;17.00;60.07;99909.23;1747210;82;22351;-79
2023/06/20 00:29:00;;;;;;;17.17;5.75;;;;;;;17.03;60.03;99908.80;1747540;82;21295;-79
2023/06/20 00:32:07;;;;;;;12.28;5.25;;;;;;;17.11;59.67;99907.09;1746315;82;21330;-80
2023/06/20 00:35:11;;;;;;;14.33;5.40;;;;;;;17.14;59.48;99911.88;1746195;82;21892;-79
2023/06/20 00:38:16;;;;;;;10.50;5.40;;;;;;;17.24;58.88;99913.02;1747117;82;21307;-80
2023/06/20 00:41:22;;;;;;;12.37;5.58;;;;;;;17.31;58.50;99915.19;1746843;82;21338;-80
2023/06/20 00:44:29;;;;;;;13.43;5.15;;;;;;;17.18;58.79;99913.95;1746567;82;21279;-80
2023/06/20 00:47:36;;;;;;;16.02;5.37;;;;;;;17.19;58.81;99919.77;1747644;82;21275;-82
2023/06/20 00:50:42;;;;;;;9.13;5.22;;;;;;;17.17;58.83;99915.53;1747217;82;21903;-80
2023/06/20 00:53:49;;;;;;;10.55;5.12;;;;;;;17.25;58.49;99917.47;1746951;82;21869;-81
2023/06/20 00:56:55;;;;;;;11.75;5.15;;;;;;;17.29;58.40;99916.48;1724430;82;21856;-81
2023/06/20 01:00:01;;;;;;;14.35;5.67;;;;;;;17.23;58.46;99918.25;1747442;82;21339;-80
2023/06/20 01:03:15;;;;;;;16.25;5.83;;;;;;;17.28;58.40;99918.94;1747518;82;21287;-82
2023/06/20 01:06:47;;;;;;;10.30;5.67;;;;;;;17.40;57.81;99919.84;1747543;82;21283;-81
2023/06/20 01:10:22;;;;;;;9.10;5.03;;;;;;;17.53;57.39;99922.46;1747510;82;21276;-79
2023/06/20 01:13:32;;;;;;;12.65;5.33;;;;;;;17.59;57.01;99922.91;1747420;82;21892;-82
2023/06/20 01:16:44;;;;;;;8.68;5.53;;;;;;;17.52;57.22;99927.69;1747940;82;21351;-80
2023/06/20 01:20:09;;;;;;;13.03;6.30;;;;;;;17.45;57.34;99925.53;1720791;82;21303;-82
2023/06/20 01:23:21;;;;;;;12.75;5.30;;;;;;;17.45;57.38;99928.29;1746311;82;21825;-80
2023/06/20 01:26:50;;;;;;;11.78;6.08;;;;;;;17.61;57.03;99931.84;1746767;82;21947;-82
2023/06/20 01:30:20;;;;;;;20.37;6.17;;;;;;;17.46;57.47;99932.77;1747713;82;21320;-81
2023/06/20 01:33:29;;;;;;;21.33;6.28;;;;;;;17.45;57.53;99922.77;1747934;82;21283;-81
2023/06/20 01:36:39;;;;;;;11.65;5.92;;;;;;;17.44;57.65;99931.30;1747863;82;21904;-81
2023/06/20 01:39:49;;;;;;;14.25;6.00;;;;;;;17.38;57.97;99930.30;1744781;82;21343;-82
2023/06/20 01:42:51;;;;;;;12.05;6.55;;;;;;;17.29;58.41;99928.91;1744062;82;21268;-80
2023/06/20 01:45:46;;;;;;;10.60;5.72;;;;;;;17.19;58.83;99931.38;1743895;82;21332;-81
2023/06/20 01:48:32;;;;;;;13.32;6.30;;;;;;;17.25;58.74;99930.44;1744069;82;21877;-79
2023/06/20 01:51:25;;;;;;;12.78;6.30;;;;;;;17.21;58.96;99937.50;1743120;82;21275;-79
2023/06/20 01:54:12;;;;;;;10.50;6.03;;;;;;;17.30;58.76;99927.84;1742622;82;21335;-81
2023/06/20 01:57:04;;;;;;;18.10;6.15;;;;;;;17.35;58.91;99929.38;1742506;82;21335;-80
2023/06/20 01:59:50;;;;;;;12.53;6.92;;;;;;;17.44;58.94;99935.45;1743876;82;21268;-81
2023/06/20 02:02:43;;;;;;;14.63;6.65;;;;;;;17.67;58.70;99927.30;1744100;82;21287;-82
2023/06/20 02:05:31;;;;;;;11.95;7.17;;;;;;;17.91;58.46;99928.83;1742847;82;21311;-80
2023/06/20 02:08:23;;;;;;;14.47;6.62;;;;;;;18.16;57.95;99930.94;1743398;82;21319;-80
2023/06/20 02:11:09;;;;;;;10.72;6.10;;;;;;;18.59;56.88;99936.77;1743366;82;21861;-82
2023/06/20 02:14:15;;;;;;;;;;;;;;;18.90;55.95;99932.86;1746633;82;21303;-80
2023/06/20 02:17:20;;;;;;;17.48;6.95;;;;;;;19.26;55.00;99942.86;1744009;82;20281;-82
2023/06/20 02:20:26;;;;;;;13.08;6.67;;;;;;;19.65;53.85;99941.81;1743784;82;21315;-80
2023/06/20 02:23:28;;;;;;;12.23;6.75;;;;;;;19.73;53.60;99945.59;1742859;82;21905;-80
2023/06/20 02:26:23;;;;;;;12.37;6.62;;;;;;;19.82;53.37;99939.96;1742663;82;21355;-81
2023/06/20 02:29:10;;;;;;;10.03;5.75;;;;;;;20.10;52.72;99947.47;1742590;82;21845;-82
2023/06/20 02:32:10;;;;;;;20.08;6.72;;;;;;;20.33;52.07;99952.63;1742813;82;21311;-82
2023/06/20 02:35:16;;;;;;;12.40;6.80;;;;;;;20.61;51.53;99952.63;1742084;82;21835;-83
2023/06/20 02:38:23;;;;;;;12.70;6.83;;;;;;;21.08;50.58;99949.52;1771930;81;21311;-80
2023/06/20 02:41:28;;;;;;;11.65;5.35;;;;;;;21.21;50.36;99951.08;1739603;82;21908;-82
2023/06/20 02:44:34;;;;;;;13.40;6.85;;;;;;;21.63;49.46;99954.77;1711993;84;21292;-82
2023/06/20 02:48:15;;;;;;;16.35;6.53;;;;;;;21.81;48.72;99950.84;1728450;83;21292;-81
2023/06/20 02:51:30;;;;;;;10.82;5.78;;;;;;;21.95;48.20;99947.95;1727195;82;21797;-82
2023/06/20 02:55:05;;;;;;;12.60;6.35;;;;;;;22.12;47.69;99957.67;1710430;84;21294;-80
2023/06/20 02:58:19;;;;;;;11.10;5.95;;;;;;;22.35;47.18;99956.53;1711854;84;21313;-80
2023/06/20 03:01:29;;;;;;;12.78;5.83;;;;;;;22.43;46.98;99953.25;1711925;84;21934;-80
2023/06/20 03:04:36;;;;;;;11.83;5.90;;;;;;;22.66;46.54;99957.66;1711966;84;21350;-81
2023/06/20 03:07:41;;;;;;;15.20;6.80;;;;;;;22.94;45.92;99953.20;1711872;84;21312;-79
2023/06/20 03:10:49;;;;;;;12.50;6.35;;;;;;;23.17;45.35;99956.17;1742934;82;21335;-81
2023/06/20 03:13:54;;;;;;;10.35;6.37;;;;;;;23.32;45.08;99962.96;1713445;84;21318;-81
2023/06/20 03:17:01;;;;;;;17.75;6.37;;;;;;;23.56;44.61;99967.02;1689177;84;21303;-80
2023/06/20 03:20:08;;;;;;;13.35;5.58;;;;;;;23.59;44.36;99962.30;1741454;82;21311;-81
2023/06/20 03:23:14;;;;;;;18.90;5.78;;;;;;;23.52;44.59;99963.64;1712185;84;21327;-80
2023/06/20 03:26:20;;;;;;;11.93;6.47;;;;;;;23.50;44.52;99965.31;1710861;84;21347;-81
2023/06/20 03:29:25;;;;;;;11.78;5.70;;;;;;;23.70;44.23;99962.66;1743078;82;21279;-81
2023/06/20 03:32:31;;;;;;;12.58;6.12;;;;;;;23.60;44.55;99963.14;1713572;84;21212;-80
2023/06/20 03:35:36;;;;;;;10.95;6.37;;;;;;;23.69;44.53;99964.34;1717516;82;21288;-81
2023/06/20 03:38:42;;;;;;;9.03;5.80;;;;;;;23.76;44.19;99964.08;1757838;81;21944;-80
2023/06/20 03:41:48;;;;;;;15.13;6.47;;;;;;;23.81;44.06;99976.70;1720959;82;21331;-80
2023/06/20 03:44:57;;;;;;;13.85;5.72;;;;;;;24.07;43.68;99978.47;1754324;82;21278;-81
2023/06/20 03:48:03;;;;;;;16.85;6.47;;;;;;;24.13;42.73;99980.16;1754498;82;21279;-79
2023/06/20 03:51:08;;;;;;;14.30;5.85;;;;;;;24.17;43.03;99984.66;1741128;82;21702;-81
2023/06/20 03:54:14;;;;;;;11.10;5.40;;;;;;;24.15;42.96;99981.30;1723732;83;21322;-81
2023/06/20 03:57:19;;;;;;;17.98;5.47;;;;;;;24.07;43.16;99979.88;1723378;83;21366;-81
2023/06/20 04:00:26;;;;;;;10.08;5.95;;;;;;;24.16;42.94;99977.39;1724178;83;21343;-82
2023/06/20 04:03:32;;;;;;;14.53;5.97;;;;;;;24.27;42.96;99990.83;1724448;83;21311;-81
2023/06/20 04:06:40;;;;;;;21.33;5.97;;;;;;;24.40;42.81;99992.59;1724380;81;21311;-81
2023/06/20 04:09:45;;;;;;;16.55;5.70;;;;;;;24.55;42.53;99991.77;1723638;83;21359;-80
2023/06/20 04:12:52;;;;;;;14.13;5.92;;;;;;;24.30;42.46;100001.47;1723201;83;21666;-81
2023/06/20 04:15:59;;;;;;;10.15;5.42;;;;;;;24.16;42.97;99997.78;1722830;83;21295;-81
2023/06/20 04:19:05;;;;;;;14.30;6.45;;;;;;;23.88;43.35;99992.64;1722864;83;21308;-79
2023/06/20 04:22:12;;;;;;;20.32;6.35;;;;;;;23.95;43.71;99999.67;1722994;81;21315;-79
2023/06/20 04:25:17;;;;;;;18.70;6.03;;;;;;;23.99;43.68;100005.53;1723293;83;21363;-82
2023/06/20 04:28:17;;;;;;;12.88;6.33;;;;;;;24.20;43.75;100012.89;1724517;83;21319;-80
2023/06/20 04:31:24;;;;;;;16.55;6.25;;;;;;;24.23;43.31;100016.55;1723572;83;21363;-82
2023/06/20 04:34:30;;;;;;;11.45;6.40;;;;;;;24.42;43.18;100025.88;1723969;83;21315;-80
2023/06/20 04:37:36;;;;;;;10.00;5.80;;;;;;;24.49;42.38;100026.44;1722911;83;21828;-80
2023/06/20 04:40:45;;;;;;;12.37;6.05;;;;;;;24.64;43.08;100032.06;1722912;83;21303;-82
2023/06/20 04:43:52;;;;;;;16.07;6.28;;;;;;;24.28;43.77;100028.83;1715426;83;21331;-81
2023/06/20 04:46:57;;;;;;;14.93;6.10;;;;;;;24.28;43.36;100030.23;1749875;82;21355;-79
2023/06/20 04:50:04;;;;;;;10.08;5.60;;;;;;;24.41;43.16;100032.55;1717945;83;21303;-80
2023/06/20 04:53:10;;;;;;;22.20;6.28;;;;;;;24.25;43.54;100030.80;1716727;83;21311;-81
2023/06/20 04:56:16;;;;;;;13.40;5.00;;;;;;;24.48;42.32;100038.18;1750236;82;21288;-81
2023/06/20 04:59:22;;;;;;;26.42;5.70;;;;;;;24.47;42.31;100028.68;1718128;83;21318;-82
2023/06/20 05:02:30;;;;;;;18.82;5.62;;;;;;;24.55;42.69;100035.67;1751097;82;21268;-79
2023/06/20 05:05:36;;;;;;;16.20;6.25;;;;;;;24.72;42.88;100041.31;1717463;83;21307;-80
2023/06/20 05:08:42;;;;;;;14.33;5.72;;;;;;;25.02;42.37;100041.64;1749930;82;21218;-80
2023/06/20 05:11:48;;;;;;;10.65;4.95;;;;;;;25.13;41.56;100041.41;1717029;83;21864;-81
2023/06/20 05:14:55;;;;;;;10.55;4.92;;;;;;;25.15;41.86;100041.13;1718034;83;21284;-82
2023/06/20 05:18:01;;;;;;;23.45;5.50;;;;;;;25.30;41.04;100045.88;1751387;82;21300;-80
2023/06/20 05:21:07;;;;;;;16.57;5.50;;;;;;;25.39;40.96;100042.80;1717416;83;21339;-80
2023/06/20 05:24:12;;;;;;;8.93;4.72;;;;;;;25.50;41.28;100043.05;1718017;83;21291;-80
2023/06/20 05:27:19;;;;;;;11.63;4.72;;;;;;;25.71;41.40;100041.92;1716528;83;21283;-82
2023/06/20 05:30:25;;;;;;;12.95;5.17;;;;;;;26.07;39.59;100043.84;1749761;82;21216;-82
2023/06/20 05:33:32;;;;;;;18.45;5.50;;;;;;;26.07;39.84;100048.88;1718069;83;21908;-83
2023/06/20 05:36:37;;;;;;;17.00;4.90;;;;;;;26.16;39.77;100040.16;1750180;82;21346;-82
2023/06/20 05:39:42;;;;;;;12.30;5.00;;;;;;;26.29;39.57;100036.45;1716464;83;21856;-81
2023/06/20 05:42:49;;;;;;;15.55;4.47;;;;;;;26.51;39.64;100036.94;1717141;82;21302;-81
2023/06/20 05:45:55;;;;;;;13.22;4.83;;;;;;;26.62;38.42;100036.31;1711464;84;21896;-81
2023/06/20 05:49:01;;;;;;;15.55;4.92;;;;;;;26.80;37.96;100039.02;1710897;84;21291;-81
2023/06/20 05:52:06;;;;;;;8.68;4.55;;;;;;;26.94;37.92;100038.06;1710668;84;21342;-82
2023/06/20 05:55:13;;;;;;;16.15;5.45;;;;;;;27.14;38.73;100038.50;1710560;84;21355;-82
2023/06/20 05:58:19;;;;;;;11.08;4.25;;;;;;;27.35;37.39;100039.76;1711374;84;21307;-80
2023/06/20 06:01:26;;;;;;;14.80;5.47;;;;;;;27.46;37.87;100041.33;1711112;84;21311;-82
2023/06/20 06:04:33;;;;;;;12.33;4.75;;;;;;;27.52;37.62;100035.93;1711938;84;21291;-81
2023/06/20 06:07:39;;;;;;;12.85;4.65;;;;;;;27.61;37.24;100035.56;1711455;84;21362;-82
2023/06/20 06:10:46;;;;;;;25.45;5.65;;;;;;;27.58;36.47;100039.55;1711625;84;21267;-81
2023/06/20 06:13:53;;;;;;;15.13;4.15;;;;;;;27.84;35.98;100035.93;1712064;84;21736;-82
2023/06/20 06:16:58;;;;;;;11.30;4.62;;;;;;;28.00;33.21;100036.87;1710789;84;21375;-82
2023/06/20 06:20:07;;;;;;;33.25;5.62;;;;;;;28.12;33.67;100039.83;1712106;84;21809;-82
2023/06/20 06:23:11;;;;;;;25.32;4.78;;;;;;;28.02;33.50;100036.57;1711921;84;21296;-82
2023/06/20 06:26:17;;;;;;;21.93;4.42;;;;;;;27.95;33.23;100036.94;1711539;84;21271;-81
2023/06/20 06:29:25;;;;;;;15.90;3.85;;;;;;;28.08;32.77;100035.94;1711064;84;21307;-81
2023/06/20 06:32:32;;;;;;;13.40;3.33;;;;;;;28.09;33.18;100038.47;1712033;84;21268;-80
2023/06/20 06:35:39;;;;;;;11.30;3.12;;;;;;;28.09;32.00;100042.69;1711614;84;21391;-81
2023/06/20 06:38:49;;;;;;;7.75;2.70;;;;;;;28.26;32.07;100040.20;1711581;84;21315;-81
2023/06/20 06:41:54;;;;;;;8.28;2.98;;;;;;;28.33;31.65;100037.62;1690143;84;21847;-82
2023/06/20 06:44:59;;;;;;;8.35;2.80;;;;;;;28.44;31.99;100039.18;1724412;82;21316;-80
2023/06/20 06:48:05;;;;;;;10.00;3.20;;;;;;;28.37;31.67;100042.38;1735192;82;21181;-82
2023/06/20 06:51:11;;;;;;;13.58;3.17;;;;;;;28.46;30.95;100048.97;1734467;82;21386;-81
2023/06/20 06:54:16;;;;;;;29.95;3.47;;;;;;;28.51;31.94;100044.72;1735109;82;21809;-81
2023/06/20 06:57:21;;;;;;;13.85;2.83;;;;;;;28.35;31.07;100044.63;1734333;82;21308;-81
2023/06/20 07:00:27;;;;;;;11.83;3.02;;;;;;;28.24;31.05;100050.09;1770719;81;21804;-82
2023/06/20 07:03:34;;;;;;;10.60;3.00;;;;;;;28.37;30.24;100053.63;1771986;81;21912;-82
2023/06/20 07:06:40;;;;;;;11.57;3.22;;;;;;;28.61;30.20;100057.80;1736545;82;21315;-81
2023/06/20 07:09:47;;;;;;;9.63;3.35;;;;;;;28.61;29.42;100056.40;1734326;82;21316;-81
2023/06/20 07:12:53;;;;;;;11.43;2.95;;;;;;;28.52;29.60;100063.27;1733307;82;21757;-80
2023/06/20 07:15:46;;;;;;;12.98;3.12;;;;;;;28.58;29.84;100068.25;1771372;81;21420;-80
2023/06/20 07:18:51;;;;;;;13.63;3.90;;;;;;;28.48;29.77;100062.19;1771882;81;21876;-82
2023/06/20 07:21:58;;;;;;;20.45;4.20;;;;;;;28.42;30.40;100063.94;1770582;81;21306;-81
2023/06/20 07:25:04;;;;;;;8.30;3.55;;;;;;;28.76;30.75;100063.21;1771850;81;21308;-80
2023/06/20 07:28:11;;;;;;;7.45;3.37;;;;;;;28.86;29.87;100062.22;1733981;82;21312;-82
2023/06/20 07:31:17;;;;;;;7.12;3.42;;;;;;;28.65;28.76;100052.39;1734221;82;21363;-80
2023/06/20 07:34:22;;;;;;;7.67;3.40;;;;;;;28.57;28.17;100051.67;1735126;82;21181;-80
2023/06/20 07:37:27;;;;;;;6.72;3.62;;;;;;;28.57;27.92;100054.48;1771837;81;21299;-80
2023/06/20 07:40:33;;;;;;;6.80;3.00;;;;;;;28.64;28.52;100059.99;1772555;79;21299;-81
2023/06/20 07:43:40;;;;;;;13.55;3.72;;;;;;;28.53;28.63;100054.25;1770692;81;21332;-80
2023/06/20 07:46:46;;;;;;;7.42;3.60;;;;;;;28.50;27.93;100051.45;1769222;81;21810;-82
2023/06/20 07:49:51;;;;;;;9.83;3.75;;;;;;;28.59;28.30;100058.66;1771322;81;21308;-81
2023/06/20 07:52:56;;;;;;;10.25;4.03;;;;;;;28.63;27.34;100059.73;1771938;81;21275;-82
2023/06/20 07:56:02;;;;;;;10.25;3.52;;;;;;;28.65;27.62;100050.98;1797018;79;21307;-81
2023/06/20 07:59:07;;;;;;;14.07;3.50;;;;;;;28.85;28.23;100049.88;1802196;79;21316;-82
2023/06/20 08:02:13;;;;;;;12.55;3.35;;;;;;;28.89;28.64;100048.09;1802166;79;21319;-82
2023/06/20 08:05:20;;;;;;;7.40;3.33;;;;;;;28.97;26.38;100060.12;1803501;79;21308;-82
2023/06/20 08:08:27;;;;;;;6.28;3.10;;;;;;;28.69;27.09;100054.30;1803726;79;21330;-83
2023/06/20 08:11:34;;;;;;;11.20;3.70;;;;;;;28.72;29.80;100054.27;1801056;79;21331;-83
2023/06/20 08:14:40;;;;;;;7.70;3.00;;;;;;;28.72;29.06;100056.51;1779375;79;21876;-82
2023/06/20 08:17:47;;;;;;;9.38;3.33;;;;;;;28.84;27.47;100055.21;1796290;79;21240;-81
2023/06/20 08:20:54;;;;;;;9.48;4.00;;;;;;;28.83;28.49;100054.95;1795259;79;21275;-82
2023/06/20 08:24:00;;;;;;;7.40;3.22;;;;;;;28.86;29.84;100054.35;1787368;79;21852;-82
2023/06/20 08:27:05;;;;;;;14.75;3.17;;;;;;;28.98;29.86;100061.78;1769804;79;21320;-83
2023/06/20 08:30:12;;;;;;;6.47;2.80;;;;;;;29.00;28.66;100053.31;1785444;79;21394;-81
2023/06/20 08:33:19;;;;;;;6.50;3.08;;;;;;;28.97;28.45;100046.05;1803425;79;21265;-81
2023/06/20 08:36:24;;;;;;;9.68;3.55;;;;;;;29.07;28.44;100048.69;1801974;79;21880;-82
2023/06/20 08:39:30;;;;;;;12.88;3.15;;;;;;;29.16;27.64;100061.52;1800940;79;21256;-79
2023/06/20 08:42:44;;;;;;;25.15;3.15;;;;;;;29.00;27.96;100048.26;1789718;79;21287;-83
2023/06/20 08:45:47;;;;;;;4.45;2.60;;;;;;;29.01;27.86;100052.73;1780953;79;21310;-83
2023/06/20 08:48:54;;;;;;;9.40;2.92;;;;;;;29.01;27.51;100043.72;1805154;79;21248;-81
2023/06/20 08:52:00;;;;;;;6.12;2.50;;;;;;;29.02;27.16;100044.55;1786597;79;21315;-81
2023/06/20 08:55:05;;;;;;;5.20;2.47;;;;;;;29.06;26.07;100044.21;1798469;80;21263;-81
2023/06/20 08:58:15;;;;;;;8.03;2.90;;;;;;;29.13;26.30;100043.27;1789539;79;21264;-81
2023/06/20 09:01:21;;;;;;;6.12;2.67;;;;;;;29.32;26.15;100050.28;1780428;80;21312;-81
2023/06/20 09:04:28;;;;;;;8.13;3.30;;;;;;;29.44;25.50;100048.38;1781269;80;21330;-81
2023/06/20 09:07:44;;;;;;;6.65;3.08;;;;;;;29.44;25.20;100042.73;1781882;80;21688;-80
2023/06/20 09:10:49;;;;;;;8.75;2.70;;;;;;;29.60;26.11;100048.42;1781870;80;21283;-80
2023/06/20 09:13:56;;;;;;;6.10;2.70;;;;;;;29.76;25.43;100048.39;1781737;80;21311;-81
2023/06/20 09:17:03;;;;;;;9.15;2.67;;;;;;;29.88;25.08;100042.80;1781317;80;21300;-81
2023/06/20 09:20:09;;;;;;;9.00;2.50;;;;;;;29.96;24.42;100045.74;1781294;80;21288;-81
2023/06/20 09:23:14;;;;;;;5.10;2.27;;;;;;;29.78;26.05;100037.66;1782020;80;21893;-81
2023/06/20 09:26:22;;;;;;;4.37;2.30;;;;;;;29.53;24.15;100043.13;1748202;80;21299;-80
2023/06/20 09:29:28;;;;;;;4.00;2.42;;;;;;;29.54;25.34;100034.97;1781700;80;21288;-82
2023/06/20 09:32:34;;;;;;;10.40;2.20;;;;;;;29.62;25.10;100034.84;1780983;80;21276;-82
2023/06/20 09:35:40;;;;;;;4.80;2.17;;;;;;;29.69;24.45;100038.65;1781899;80;21298;-81
2023/06/20 09:39:01;;;;;;;4.17;2.00;;;;;;;29.86;24.80;100037.48;1782502;80;21260;-82
2023/06/20 09:42:07;;;;;;;5.20;2.30;;;;;;;29.92;24.47;100032.58;1782398;80;21845;-81
2023/06/20 09:45:00;;;;;;;5.78;2.75;;;;;;;29.86;24.56;100038.89;1766681;80;21272;-82
2023/06/20 09:48:06;;;;;;;9.00;2.40;;;;;;;29.76;24.51;100034.30;1783070;80;21303;-82
2023/06/20 09:51:14;;;;;;;3.50;2.40;;;;;;;29.75;24.51;100039.67;1785038;80;21327;-80
2023/06/20 09:54:24;;;;;;;9.85;2.27;;;;;;;29.61;24.34;100035.99;1785805;80;21822;-80
2023/06/20 09:57:36;;;;;;;5.58;1.90;;;;;;;29.72;24.21;100023.95;1784430;80;21295;-81
2023/06/20 10:00:41;;;;;;;3.85;2.08;;;;;;;29.76;24.05;100030.06;1784705;80;21287;-81
2023/06/20 10:03:49;;;;;;;4.28;2.20;;;;;;;29.85;23.91;100040.63;1785765;80;21185;-80
2023/06/20 10:06:55;;;;;;;5.33;2.87;;;;;;;30.00;23.83;100041.73;1785674;80;21208;-81
2023/06/20 10:13:24;;;;;;;6.95;2.42;;;;;;;30.14;22.99;100029.08;1858513;76;22181;-82
2023/06/20 10:16:34;;;;;;;7.70;2.60;;;;;;;30.18;23.57;100035.77;1795351;79;21334;-83
2023/06/20 10:19:56;;;;;;;5.53;2.40;;;;;;;30.23;24.14;100034.25;1786045;80;21287;-83
2023/06/20 10:23:05;;;;;;;7.22;2.47;;;;;;;30.27;23.61;100038.95;1784743;80;21177;-81
2023/06/20 10:26:13;;;;;;;4.00;2.20;;;;;;;30.28;23.48;100026.52;1785120;79;21296;-83
2023/06/20 10:29:19;;;;;;;3.42;2.02;;;;;;;30.28;23.37;100030.74;1786356;80;21272;-83
2023/06/20 10:32:24;;;;;;;9.45;2.70;;;;;;;30.35;23.02;100023.83;1770965;80;21295;-80
2023/06/20 10:35:30;;;;;;;3.83;2.42;;;;;;;30.30;23.64;100016.31;1786142;79;21851;-80
2023/06/20 10:38:28;;;;;;;8.28;2.60;;;;;;;30.37;23.30;100019.56;1770886;80;21287;-78
2023/06/20 10:41:35;;;;;;;5.53;2.47;;;;;;;30.35;23.88;100014.83;1785911;79;21204;-80
2023/06/20 10:44:41;;;;;;;3.80;2.25;;;;;;;30.60;23.16;100010.59;1785967;80;21264;-80
2023/06/20 10:47:47;;;;;;;7.80;2.62;;;;;;;30.48;23.36;100004.64;1786081;80;21797;-81
2023/06/20 10:50:54;;;;;;;3.30;2.17;;;;;;;30.29;24.31;100007.59;1785568;79;21331;-82
2023/06/20 10:54:00;;;;;;;3.67;2.67;;;;;;;30.23;24.26;100007.45;1786039;80;21817;-81
2023/06/20 10:57:06;;;;;;;6.05;2.70;;;;;;;30.22;23.93;100012.27;1784792;79;21769;-83
2023/06/20 11:00:21;;;;;;;4.53;2.72;;;;;;;30.13;23.12;100006.23;1784551;79;21200;-81
2023/06/20 11:03:24;;;;;;;4.83;2.37;;;;;;;30.15;23.55;100004.78;1784954;80;21287;-81
2023/06/20 11:06:31;;;;;;;5.50;2.65;;;;;;;30.27;23.67;100010.74;1784751;79;21307;-81
2023/06/20 11:09:37;;;;;;;7.58;2.50;;;;;;;30.36;23.60;100013.67;1786210;80;21302;-82
2023/06/20 11:12:49;;;;;;;5.60;2.83;;;;;;;30.54;23.71;100007.05;1785225;80;21287;-81
2023/06/20 11:15:55;;;;;;;7.10;2.90;;;;;;;30.70;23.14;100017.41;1753723;82;21288;-81
2023/06/20 11:19:00;;;;;;;8.58;3.02;;;;;;;30.71;22.80;100013.45;1753676;82;21307;-81
2023/06/20 11:22:08;;;;;;;3.80;2.60;;;;;;;30.58;22.69;100014.28;1753332;82;21308;-83
2023/06/20 11:25:15;;;;;;;5.83;3.17;;;;;;;30.67;22.23;100001.09;1753082;82;21307;-82
2023/06/20 11:28:22;;;;;;;4.92;2.90;;;;;;;30.52;22.46;100004.27;1757997;80;21373;-83
2023/06/20 11:31:22;;;;;;;8.38;3.00;;;;;;;30.29;22.16;99997.14;1769474;81;21314;-82
2023/06/20 11:34:16;;;;;;;7.90;2.98;;;;;;;30.37;22.88;99989.11;1768878;81;21336;-83
2023/06/20 11:37:21;;;;;;;4.30;3.00;;;;;;;30.30;23.24;99992.34;1770501;81;21280;-81
2023/06/20 11:40:30;;;;;;;4.85;3.55;;;;;;;30.45;22.72;99985.55;1770312;81;21305;-81
2023/06/20 11:43:29;;;;;;;6.00;3.20;;;;;;;30.44;23.34;99985.27;1760272;80;21298;-81
2023/06/20 11:46:21;;;;;;;4.08;2.80;;;;;;;30.44;23.34;99985.27;1748010;82;21866;-81
2023/06/20 11:49:07;;;;;;;3.42;2.87;;;;;;;30.46;23.22;99983.81;1723946;82;21288;-83
2023/06/20 11:51:59;;;;;;;8.55;3.15;;;;;;;30.46;22.74;99978.75;1747824;82;21338;-81
2023/06/20 11:54:51;;;;;;;4.40;2.70;;;;;;;30.53;23.16;99978.55;1704945;82;21307;-83
2023/06/20 11:57:57;;;;;;;4.80;2.70;;;;;;;30.58;24.16;99983.24;1755166;80;21303;-81
2023/06/20 12:01:20;;;;;;;5.50;2.47;;;;;;;30.55;24.31;99981.08;1785134;80;21882;-81
2023/06/20 12:04:28;;;;;;;6.58;2.80;;;;;;;30.59;24.12;99986.34;1784623;80;21269;-82
2023/06/20 12:07:33;;;;;;;4.67;2.80;;;;;;;30.57;23.94;99983.57;1785659;80;21185;-82
2023/06/20 12:10:40;;;;;;;11.70;2.65;;;;;;;30.63;23.88;99981.74;1785368;80;21319;-81
2023/06/20 12:13:47;;;;;;;6.80;2.92;;;;;;;30.71;24.52;99971.11;1763192;80;21279;-80
2023/06/20 12:16:52;;;;;;;3.10;2.35;;;;;;;30.80;24.16;99973.44;1683471;82;21346;-82
2023/06/20 12:19:58;;;;;;;5.45;2.47;;;;;;;30.84;23.87;99968.58;1735339;82;21280;-82
2023/06/20 12:23:03;;;;;;;5.05;2.77;;;;;;;30.95;24.07;99974.22;1735520;82;21263;-80
2023/06/20 12:26:08;;;;;;;3.55;2.60;;;;;;;30.78;24.19;99973.52;1735419;82;21316;-81
2023/06/20 12:29:14;;;;;;;5.85;3.37;;;;;;;30.58;23.86;99964.90;1734774;81;21346;-82
2023/06/20 12:32:20;;;;;;;6.97;2.75;;;;;;;30.55;24.00;99962.73;1735379;82;21303;-80
2023/06/20 12:35:26;;;;;;;5.15;2.75;;;;;;;30.59;23.68;99960.12;1735173;82;21335;-82
2023/06/20 12:38:31;;;;;;;9.40;2.72;;;;;;;30.48;24.52;99952.44;1733959;82;21287;-82
2023/06/20 12:41:42;;;;;;;10.08;2.40;;;;;;;30.60;24.75;99961.20;1733994;82;21327;-80
2023/06/20 12:44:49;;;;;;;6.67;2.58;;;;;;;30.49;24.90;99953.56;1734383;81;21300;-81
2023/06/20 12:47:56;;;;;;;4.90;2.33;;;;;;;30.65;24.31;99958.25;1735382;82;21268;-81
2023/06/20 12:51:02;;;;;;;3.77;2.75;;;;;;;30.70;24.25;99954.48;1733933;82;21319;-81
2023/06/20 13:02:23;;;;;;;3.22;2.65;;;;;;;30.60;24.57;99947.09;1755151;81;21276;-82
2023/06/20 13:05:28;;;;;;;;;;;;;;;30.61;24.88;99947.34;1758000;81;21327;-80
2023/06/20 13:08:33;;;;;;;6.80;2.90;;;;;;;30.67;24.45;99950.88;1757004;81;20203;-80
2023/06/20 13:11:39;;;;;;;7.15;3.12;;;;;;;30.70;24.70;99951.66;1755909;81;21307;-80
2023/06/20 13:14:45;;;;;;;4.65;2.70;;;;;;;30.63;25.31;99947.87;1739631;82;21323;-83
2023/06/20 13:17:58;;;;;;;3.75;2.37;;;;;;;30.75;24.29;99942.51;1704516;84;21280;-81
2023/06/20 13:21:01;;;;;;;4.45;2.42;;;;;;;30.88;24.08;99947.85;1739363;81;21869;-82
2023/06/20 13:24:07;;;;;;;5.85;3.00;;;;;;;30.84;24.56;99939.76;1739700;82;21288;-81
2023/06/20 13:27:14;;;;;;;8.70;2.92;;;;;;;30.76;24.46;99949.82;1738564;81;21316;-81
2023/06/20 13:30:20;;;;;;;3.67;2.52;;;;;;;30.78;24.57;99942.46;1739219;81;21276;-81
2023/06/20 13:33:27;;;;;;;4.85;2.47;;;;;;;30.87;24.42;99942.53;1739882;82;21256;-82
2023/06/20 13:36:33;;;;;;;5.03;2.80;;;;;;;30.79;24.20;99937.90;1739035;81;21292;-81
2023/06/20 13:39:39;;;;;;;4.78;3.05;;;;;;;30.79;24.92;99939.89;1739891;82;21285;-80
2023/06/20 13:42:48;;;;;;;4.85;2.75;;;;;;;30.78;24.85;99936.81;1739635;82;21307;-80
2023/06/20 13:45:47;;;;;;;7.62;2.90;;;;;;;30.87;25.13;99932.66;1739090;81;21600;-82
2023/06/20 13:48:39;;;;;;;5.67;3.05;;;;;;;30.67;25.21;99927.71;1739936;82;21865;-82
2023/06/20 13:51:44;;;;;;;7.12;2.65;;;;;;;30.69;25.50;99916.95;1738847;81;21299;-80
2023/06/20 13:54:50;;;;;;;5.65;3.12;;;;;;;30.67;25.62;99922.64;1739467;82;21311;-80
2023/06/20 13:57:56;;;;;;;5.75;3.08;;;;;;;30.72;24.87;99921.97;1739886;82;21293;-82
2023/06/20 14:01:03;;;;;;;10.50;3.30;;;;;;;30.72;24.83;99914.91;1738823;81;21352;-80
2023/06/20 14:04:07;;;;;;;6.75;2.80;;;;;;;30.74;25.10;99912.63;1739993;82;21288;-82
2023/06/20 14:07:13;;;;;;;8.08;2.70;;;;;;;30.76;25.47;99913.70;1739752;81;21324;-81
2023/06/20 14:10:33;;;;;;;4.50;2.90;;;;;;;30.74;26.15;99919.68;1739715;81;21316;-81
2023/06/20 14:13:40;;;;;;;7.33;2.70;;;;;;;30.87;25.80;99912.89;1738568;82;21312;-80
2023/06/20 14:16:45;;;;;;;4.80;2.90;;;;;;;30.79;25.46;99908.26;1746383;81;21327;-82
2023/06/20 14:19:51;;;;;;;9.78;3.10;;;;;;;30.61;25.71;99909.82;1753139;82;21307;-81
2023/06/20 14:22:57;;;;;;;5.70;2.67;;;;;;;30.66;25.64;99909.69;1753176;82;21296;-82
2023/06/20 14:26:03;;;;;;;4.62;2.70;;;;;;;30.61;25.34;99909.82;1752241;80;21915;-82
2023/06/20 14:29:09;;;;;;;5.37;2.90;;;;;;;30.49;26.29;99901.94;1753104;82;21328;-81
2023/06/20 14:32:14;;;;;;;5.42;2.65;;;;;;;30.60;26.54;99908.16;1752715;80;21797;-81
2023/06/20 14:35:20;;;;;;;7.92;3.05;;;;;;;30.65;26.12;99907.45;1752643;80;21283;-81
2023/06/20 14:38:39;;;;;;;7.53;3.20;;;;;;;30.63;26.49;99906.95;1751633;82;21347;-81